Time;durP1;ratioP1;P1;durP2;ratioP2;P2;SDS_P1;SDS_P2;PMS_P1;PMS_P2;Temp;Humidity;BMP_temperature;BMP_pressure;BME280_temperature;BME280_humidity;BME280_pressure;Samples;Min_cycle;Max_cycle;Signal;HPM_P1;HPM_P2
2022/01/12 00:02:09;;;;;;;19.20;9.93;;;-0.40;99.90;-0.80;102499.00;;;;4991710;28;87861;-66
2022/01/12 00:04:35;;;;;;;21.10;10.93;;;-0.40;99.90;-0.80;102506.00;;;;5000954;27;87967;-66
2022/01/12 00:07:01;;;;;;;14.30;9.13;;;-0.50;99.90;-0.80;102489.00;;;;4979005;27;116824;-66
2022/01/12 00:09:27;;;;;;;16.63;9.40;;;-0.50;99.90;-0.80;102487.00;;;;5014210;27;112522;-66
2022/01/12 00:11:52;;;;;;;15.47;9.10;;;-0.40;99.90;-0.80;102487.00;;;;5016391;27;87856;-66
2022/01/12 00:14:18;;;;;;;18.17;10.33;;;-0.40;99.90;-0.80;102498.00;;;;5013203;27;118917;-65
2022/01/12 00:16:47;;;;;;;16.20;10.30;;;-0.50;99.90;-0.70;102497.00;;;;5013989;27;118541;-65
2022/01/12 00:19:13;;;;;;;16.07;8.57;;;-0.30;99.90;-0.70;102496.00;;;;5015338;27;87651;-65
2022/01/12 00:21:39;;;;;;;20.10;10.90;;;-0.40;99.90;-0.70;102485.00;;;;5015792;27;90743;-64
2022/01/12 00:24:06;;;;;;;21.70;10.00;;;-0.40;99.90;-0.70;102485.00;;;;4995880;27;88745;-65
2022/01/12 00:34:31;;;;;;;14.10;9.13;;;-0.30;99.90;-0.60;102490.00;;;;5013599;27;88068;-66
2022/01/12 00:36:57;;;;;;;15.50;9.80;;;-0.40;99.90;-0.60;102501.00;;;;5016284;27;87753;-66
2022/01/12 00:39:23;;;;;;;17.30;8.83;;;-0.30;99.90;-0.60;102496.00;;;;5006190;27;88850;-66
2022/01/12 00:41:50;;;;;;;22.30;9.97;;;-0.30;99.90;-0.60;102490.00;;;;5014141;27;108761;-67
2022/01/12 00:44:23;;;;;;;22.50;10.53;;;-0.30;99.90;-0.50;102499.00;;;;5014087;27;88846;-67
2022/01/12 00:46:52;;;;;;;16.73;8.77;;;-0.20;99.90;-0.50;102487.00;;;;5014127;27;88778;-67
2022/01/12 00:49:18;;;;;;;21.03;10.23;;;-0.20;99.90;-0.50;102496.00;;;;5014830;27;87746;-66
2022/01/12 00:51:44;;;;;;;17.13;9.57;;;-0.20;99.90;-0.50;102491.00;;;;4999831;27;91294;-66
2022/01/12 00:54:10;;;;;;;18.53;8.47;;;-0.10;99.90;-0.40;102496.00;;;;5014745;27;88958;-66
2022/01/12 00:56:36;;;;;;;18.03;10.03;;;-0.10;99.90;-0.50;102490.00;;;;4998194;27;97183;-66
2022/01/12 00:59:03;;;;;;;18.33;8.17;;;-0.10;99.90;-0.50;102484.00;;;;5014540;27;87511;-66
2022/01/12 01:01:29;;;;;;;14.63;8.13;;;-0.20;99.90;-0.50;102488.00;;;;5013900;27;105679;-66
2022/01/12 01:03:55;;;;;;;17.57;8.77;;;-0.20;99.90;-0.50;102489.00;;;;4993657;28;90943;-65
2022/01/12 01:06:22;;;;;;;13.37;9.03;;;-0.20;99.90;-0.60;102499.00;;;;4994349;27;89747;-68
2022/01/12 01:08:51;;;;;;;17.87;8.63;;;-0.20;99.90;-0.60;102499.00;;;;4994610;28;87592;-68
2022/01/12 01:11:18;;;;;;;13.70;7.70;;;-0.20;99.90;-0.60;102488.00;;;;4995033;27;87719;-67
2022/01/12 01:13:55;;;;;;;19.17;7.80;;;-0.30;99.90;-0.60;102494.00;;;;5010351;27;90511;-66
2022/01/12 01:16:51;;;;;;;21.00;9.23;;;-0.20;99.90;-0.60;102493.00;;;;4998031;27;87665;-66
2022/01/12 01:27:22;;;;;;;15.70;7.10;;;-0.30;99.90;-0.60;102485.00;;;;5007400;27;87925;-65
2022/01/12 01:29:49;;;;;;;17.17;7.87;;;-0.20;99.90;-0.60;102482.00;;;;5014218;27;88774;-67
2022/01/12 01:32:14;;;;;;;19.07;8.67;;;-0.20;99.90;-0.60;102478.00;;;;5006863;27;87789;-67
2022/01/12 01:34:46;;;;;;;13.30;7.53;;;-0.20;99.90;-0.60;102481.00;;;;4994884;27;118690;-67
2022/01/12 01:37:12;;;;;;;13.60;7.10;;;0.70;99.90;-0.60;102484.00;;;;4976814;28;87913;-67
2022/01/12 01:39:39;;;;;;;14.73;6.97;;;-0.20;99.90;-0.60;102490.00;;;;4994655;27;87822;-67
2022/01/12 01:42:14;;;;;;;16.40;7.83;;;-0.20;99.90;-0.60;102490.00;;;;5003739;27;87826;-67
2022/01/12 01:53:23;;;;;;;17.03;8.23;;;0.70;99.90;-0.60;102475.00;;;;4988195;27;87922;-66
2022/01/12 01:55:24;;;;;;;15.73;7.87;;;0.70;99.90;-0.60;102465.00;;;;4993059;27;90215;-66
2022/01/12 01:57:50;;;;;;;17.17;9.00;;;-0.20;99.90;-0.60;102468.00;;;;4993710;27;119097;-68
2022/01/12 02:00:20;;;;;;;18.17;10.40;;;-0.20;99.90;-0.60;102470.00;;;;4996691;27;110249;-67
2022/01/12 02:02:46;;;;;;;18.97;8.17;;;-0.20;99.90;-0.60;102485.00;;;;4978726;28;87899;-67
2022/01/12 02:05:12;;;;;;;11.67;7.10;;;-0.20;99.90;-0.50;102475.00;;;;5003967;27;88955;-67
2022/01/12 02:07:38;;;;;;;13.10;8.13;;;-0.20;99.90;-0.50;102488.00;;;;5017821;27;89490;-67
2022/01/12 02:10:04;;;;;;;19.50;9.30;;;-0.20;99.90;-0.50;102479.00;;;;5017750;27;87891;-67
2022/01/12 02:12:30;;;;;;;18.17;8.33;;;0.40;99.90;-0.50;102478.00;;;;5017244;27;96150;-67
2022/01/12 02:14:58;;;;;;;15.30;8.63;;;0.60;99.90;-0.50;102477.00;;;;5014719;27;102737;-67
2022/01/12 02:17:30;;;;;;;17.57;9.27;;;-0.10;99.90;-0.50;102476.00;;;;5017768;27;88533;-67
2022/01/12 02:20:31;;;;;;;13.07;8.17;;;0.50;99.90;-0.50;102476.00;;;;5016081;27;89064;-67
2022/01/12 02:36:59;;;;;;;15.87;9.73;;;-0.20;99.90;-0.60;102478.00;;;;4977828;28;87838;-68
2022/01/12 02:42:10;;;;;;;17.90;9.63;;;-0.30;99.90;-0.70;102468.00;;;;4999328;27;87835;-67
2022/01/12 02:55:34;;;;;;;17.53;9.63;;;-0.40;99.90;-0.70;102475.00;;;;5003864;27;88054;-67
2022/01/12 02:57:59;;;;;;;21.13;10.33;;;-0.40;99.90;-0.70;102471.00;;;;4995622;27;118173;-68
2022/01/12 03:00:36;;;;;;;18.03;9.43;;;-0.30;99.90;-0.70;102464.00;;;;5002739;27;117661;-68
2022/01/12 03:03:03;;;;;;;12.30;8.67;;;-0.10;99.90;-0.70;102454.00;;;;5016592;27;87920;-69
2022/01/12 03:05:45;;;;;;;17.67;10.10;;;-0.50;99.90;-0.70;102463.00;;;;5007385;27;86861;-69
2022/01/12 03:08:15;;;;;;;18.07;10.93;;;-0.40;99.90;-0.70;102463.00;;;;4996264;28;87855;-69
2022/01/12 03:10:40;;;;;;;14.63;10.43;;;-0.50;99.90;-0.70;102461.00;;;;5003366;27;88061;-69
2022/01/12 03:13:06;;;;;;;18.93;11.27;;;-0.40;99.90;-0.70;102454.00;;;;5014951;27;92152;-68
2022/01/12 03:15:39;;;;;;;21.43;10.47;;;-0.40;99.90;-0.70;102463.00;;;;5006221;27;87820;-69
2022/01/12 03:18:06;;;;;;;20.13;10.50;;;0.70;99.90;-0.70;102470.00;;;;4995715;28;88845;-69
2022/01/12 03:20:32;;;;;;;29.67;11.33;;;-0.40;99.90;-0.70;102470.00;;;;4995717;27;88837;-70
2022/01/12 03:22:58;;;;;;;20.80;10.73;;;0.30;99.90;-0.80;102478.00;;;;5003396;27;89255;-69
2022/01/12 03:25:23;;;;;;;21.67;11.47;;;-0.40;99.90;-0.80;102464.00;;;;4995565;27;96506;-69
2022/01/12 03:27:51;;;;;;;21.90;10.80;;;-0.40;99.90;-0.80;102471.00;;;;4995958;27;89049;-69
2022/01/12 03:30:17;;;;;;;19.47;11.17;;;-0.40;99.90;-0.80;102469.00;;;;4996131;28;88566;-68
2022/01/12 03:32:47;;;;;;;15.23;9.47;;;-0.20;99.90;-0.80;102471.00;;;;5008886;27;87879;-67
2022/01/12 03:35:46;;;;;;;23.30;12.50;;;-0.40;99.90;-0.80;102466.00;;;;5009787;27;88053;-68
2022/01/12 03:38:20;;;;;;;18.57;10.93;;;0.60;99.90;-0.70;102462.00;;;;4994957;27;88912;-68
2022/01/12 03:40:49;;;;;;;20.47;10.53;;;-0.40;99.90;-0.70;102462.00;;;;4995752;28;88060;-68
2022/01/12 03:43:17;;;;;;;15.57;10.07;;;-0.40;99.90;-0.70;102464.00;;;;5005174;27;87836;-68
2022/01/12 03:45:46;;;;;;;20.73;11.83;;;-0.40;99.90;-0.70;102476.00;;;;4996636;27;87757;-68
2022/01/12 03:48:12;;;;;;;19.40;11.17;;;-0.40;99.90;-0.70;102466.00;;;;4995658;28;88689;-68
2022/01/12 03:50:38;;;;;;;20.67;12.10;;;-0.40;99.90;-0.70;102458.00;;;;5002669;27;88150;-68
2022/01/12 03:53:03;;;;;;;30.00;11.40;;;0.50;99.90;-0.70;102466.00;;;;5005120;27;87667;-69
2022/01/12 03:55:29;;;;;;;19.73;9.77;;;-0.40;99.90;-0.80;102455.00;;;;5005966;27;108178;-68
2022/01/12 03:57:55;;;;;;;22.03;11.60;;;-0.40;99.90;-0.70;102459.00;;;;4995914;27;117619;-68
2022/01/12 04:00:21;;;;;;;19.23;10.83;;;-0.40;99.90;-0.70;102462.00;;;;4994986;27;118173;-69
2022/01/12 04:02:46;;;;;;;22.40;11.63;;;-0.40;99.90;-0.80;102441.00;;;;5003479;27;88781;-68
2022/01/12 04:05:28;;;;;;;17.83;11.00;;;-0.40;99.90;-0.80;102456.00;;;;4997038;27;87777;-69
2022/01/12 04:10:38;;;;;;;24.07;13.13;;;-0.40;99.90;-0.80;102465.00;;;;4992667;27;88140;-68
2022/01/12 04:13:04;;;;;;;18.73;12.57;;;-0.10;99.90;-0.70;102455.00;;;;5011285;27;112008;-68
2022/01/12 04:15:30;;;;;;;23.33;12.00;;;-0.50;99.90;-0.70;102467.00;;;;5005561;27;87556;-68
2022/01/12 04:17:56;;;;;;;15.40;11.43;;;0.60;99.90;-0.70;102451.00;;;;4996430;27;97315;-68
2022/01/12 04:20:21;;;;;;;26.43;12.03;;;-0.40;99.90;-0.80;102466.00;;;;4994926;27;116774;-68
2022/01/12 04:25:31;;;;;;;17.43;10.90;;;0.30;99.90;-0.70;102461.00;;;;5002700;27;87644;-68
2022/01/12 04:27:57;;;;;;;24.20;10.73;;;-0.40;99.90;-0.70;102458.00;;;;4975755;28;89044;-68
2022/01/12 04:30:23;;;;;;;27.37;12.47;;;-0.40;99.90;-0.70;102459.00;;;;4994112;28;120543;-68
2022/01/12 04:32:49;;;;;;;21.37;11.33;;;-0.40;99.90;-0.80;102481.00;;;;5001740;27;87377;-68
2022/01/12 04:35:16;;;;;;;20.07;11.30;;;0.00;99.90;-0.80;102481.00;;;;4995645;28;87664;-68
2022/01/12 04:37:42;;;;;;;25.67;12.30;;;-0.40;99.90;-0.80;102484.00;;;;4995049;28;88195;-69
2022/01/12 04:40:08;;;;;;;22.77;11.83;;;-0.40;99.90;-0.80;102476.00;;;;4991503;28;117781;-69
2022/01/12 04:42:35;;;;;;;26.57;12.23;;;-0.40;99.90;-0.80;102473.00;;;;4999880;27;100219;-68
2022/01/12 04:45:17;;;;;;;18.43;12.23;;;0.60;99.90;-0.80;102479.00;;;;5009485;27;87123;-68
2022/01/12 04:47:59;;;;;;;20.27;12.07;;;-0.40;99.90;-0.80;102479.00;;;;4994507;28;88862;-68
2022/01/12 04:50:28;;;;;;;18.57;10.47;;;0.40;99.90;-0.80;102478.00;;;;4996080;27;88332;-69
2022/01/12 04:52:55;;;;;;;20.33;11.53;;;-0.50;99.90;-0.80;102480.00;;;;5014672;27;88410;-69
2022/01/12 04:55:21;;;;;;;19.30;11.47;;;0.50;99.90;-0.70;102490.00;;;;5007056;27;88035;-68
2022/01/12 04:57:47;;;;;;;24.17;12.40;;;-0.40;99.90;-0.70;102486.00;;;;4994067;27;117983;-68
2022/01/12 05:00:17;;;;;;;22.63;12.37;;;-0.30;99.90;-0.70;102489.00;;;;4993495;27;117645;-68
2022/01/12 05:13:48;;;;;;;21.67;13.50;;;-0.30;99.90;-0.70;102493.00;;;;4978596;28;87994;-68
2022/01/12 05:16:14;;;;;;;25.63;12.37;;;-0.30;99.90;-0.70;102478.00;;;;4995078;27;87959;-69
2022/01/12 05:18:42;;;;;;;32.77;14.93;;;-0.40;99.90;-0.70;102491.00;;;;4992873;27;118066;-69
2022/01/12 05:21:09;;;;;;;25.33;11.10;;;-0.40;99.90;-0.70;102501.00;;;;4996855;27;88681;-69
2022/01/12 05:23:36;;;;;;;25.20;12.43;;;-0.40;99.90;-0.70;102491.00;;;;5013975;27;100975;-69
2022/01/12 05:26:02;;;;;;;20.67;12.40;;;-0.40;99.90;-0.70;102483.00;;;;4980679;28;87840;-69
2022/01/12 05:28:29;;;;;;;28.70;13.50;;;-0.30;99.90;-0.70;102476.00;;;;4990327;28;88032;-69
2022/01/12 05:30:56;;;;;;;23.03;11.40;;;-0.40;99.90;-0.70;102466.00;;;;4994515;28;88361;-69
2022/01/12 05:33:24;;;;;;;32.50;15.33;;;-0.40;99.90;-0.70;102476.00;;;;5013305;27;101488;-69
2022/01/12 05:35:55;;;;;;;22.90;13.20;;;-0.40;99.90;-0.70;102473.00;;;;5012817;27;87224;-70
2022/01/12 05:38:22;;;;;;;23.90;12.50;;;-0.40;99.90;-0.70;102477.00;;;;4996450;27;88006;-69
2022/01/12 05:40:53;;;;;;;22.93;14.63;;;-0.30;99.90;-0.80;102481.00;;;;5004199;27;89006;-70
2022/01/12 05:43:28;;;;;;;25.17;12.33;;;-0.50;99.90;-0.80;102472.00;;;;4994702;27;88949;-67
2022/01/12 05:46:08;;;;;;;23.53;13.73;;;-0.40;99.90;-0.80;102479.00;;;;5004238;27;87782;-68
2022/01/12 05:51:18;;;;;;;27.43;14.00;;;-0.50;99.90;-0.80;102484.00;;;;4999028;27;87743;-68
2022/01/12 05:53:44;;;;;;;22.67;12.60;;;-0.40;99.90;-0.90;102483.00;;;;5010073;27;88085;-68
2022/01/12 05:56:10;;;;;;;52.33;28.20;;;-0.50;99.90;-0.80;102492.00;;;;5014179;27;97480;-68
2022/01/12 05:58:35;;;;;;;25.33;12.93;;;-0.50;99.90;-0.80;102501.00;;;;5016003;27;117846;-69
2022/01/12 06:01:01;;;;;;;24.20;11.80;;;-0.40;99.90;-0.80;102501.00;;;;5002569;27;117434;-68
2022/01/12 06:03:27;;;;;;;21.83;12.57;;;-0.40;99.90;-0.80;102503.00;;;;5010535;27;113021;-68
2022/01/12 06:05:53;;;;;;;23.93;13.13;;;-0.50;99.90;-0.80;102497.00;;;;4996229;27;108159;-68
2022/01/12 06:08:18;;;;;;;22.23;12.90;;;-0.50;99.90;-0.80;102509.00;;;;4995648;27;118512;-68
2022/01/12 06:10:44;;;;;;;19.20;11.47;;;-0.50;99.90;-0.90;102502.00;;;;4978088;28;89487;-68
2022/01/12 06:13:10;;;;;;;24.87;12.43;;;-0.50;99.90;-0.90;102508.00;;;;4995596;28;113056;-68
2022/01/12 06:15:36;;;;;;;22.27;11.57;;;0.30;99.90;-0.90;102492.00;;;;4995987;27;108691;-69
2022/01/12 06:18:02;;;;;;;23.30;12.37;;;-0.60;99.90;-1.00;102513.00;;;;4996385;28;89274;-69
2022/01/12 06:20:27;;;;;;;28.13;12.80;;;-0.60;99.90;-1.00;102511.00;;;;4996510;27;88811;-69
2022/01/12 06:22:53;;;;;;;24.27;12.20;;;-0.60;99.90;-1.00;102507.00;;;;4996432;28;107388;-69
2022/01/12 06:25:19;;;;;;;27.20;12.30;;;-0.60;99.90;-1.00;102515.00;;;;4996655;27;108565;-69
2022/01/12 06:27:51;;;;;;;23.03;13.30;;;-0.60;99.90;-1.00;102508.00;;;;5008729;27;104275;-69
2022/01/12 06:32:57;;;;;;;18.83;11.77;;;-0.70;99.90;-0.90;102509.00;;;;4995343;27;88862;-69
2022/01/12 06:35:25;;;;;;;22.33;10.63;;;-0.60;99.90;-0.90;102489.00;;;;4996317;27;92425;-69
2022/01/12 06:37:57;;;;;;;18.47;10.57;;;0.30;99.90;-1.00;102510.00;;;;4996451;28;87921;-67
2022/01/12 06:40:23;;;;;;;23.20;13.27;;;-0.70;99.90;-1.00;102509.00;;;;4984664;28;109657;-68
2022/01/12 06:42:49;;;;;;;15.67;10.37;;;-0.70;99.90;-1.00;102513.00;;;;4996282;28;101402;-68
2022/01/12 06:45:15;;;;;;;19.93;11.50;;;-0.70;99.90;-1.00;102512.00;;;;4980090;28;87944;-69
2022/01/12 06:47:41;;;;;;;21.10;12.73;;;-0.70;99.90;-1.00;102498.00;;;;4989688;27;89549;-68
2022/01/12 06:50:07;;;;;;;19.97;10.60;;;-0.60;99.90;-1.00;102511.00;;;;5014904;27;88562;-67
2022/01/12 06:52:33;;;;;;;20.23;11.67;;;-0.70;99.90;-1.00;102511.00;;;;5016271;27;87897;-68
2022/01/12 06:55:00;;;;;;;18.20;10.87;;;-0.60;99.90;-1.00;102493.00;;;;5009751;27;108017;-69
2022/01/12 06:57:26;;;;;;;16.13;9.83;;;-0.60;99.90;-0.90;102510.00;;;;5006333;27;88769;-68
2022/01/12 06:59:52;;;;;;;25.23;12.43;;;-0.60;99.90;-0.90;102508.00;;;;5012283;27;103284;-69
2022/01/12 07:02:17;;;;;;;18.67;10.97;;;-0.60;99.90;-0.90;102515.00;;;;4996743;27;110357;-69
2022/01/12 07:04:43;;;;;;;15.30;11.10;;;-0.50;99.90;-0.90;102509.00;;;;5015524;27;91583;-68
2022/01/12 07:07:10;;;;;;;23.03;11.60;;;-0.50;99.90;-0.90;102503.00;;;;5015739;27;117335;-69
2022/01/12 07:09:35;;;;;;;16.20;10.47;;;-0.50;99.90;-0.90;102492.00;;;;5015680;27;88761;-69
2022/01/12 07:12:01;;;;;;;17.90;10.10;;;-0.50;99.90;-0.90;102505.00;;;;5015620;27;114216;-69
2022/01/12 07:14:27;;;;;;;17.30;11.47;;;-0.50;99.90;-0.90;102502.00;;;;5015276;27;86789;-68
2022/01/12 07:16:53;;;;;;;20.67;11.73;;;-0.50;99.90;-0.90;102506.00;;;;5015267;27;118284;-68
2022/01/12 07:19:18;;;;;;;20.77;10.60;;;-0.60;99.90;-0.90;102510.00;;;;5014539;27;116715;-69
2022/01/12 07:21:44;;;;;;;16.83;10.13;;;-0.60;99.90;-1.00;102498.00;;;;4992465;28;112054;-69
2022/01/12 07:24:10;;;;;;;17.70;11.23;;;-0.60;99.90;-1.00;102506.00;;;;5009340;27;109598;-69
2022/01/12 07:26:35;;;;;;;23.03;11.97;;;-0.60;99.90;-1.10;102515.00;;;;5015850;27;101035;-69
2022/01/12 07:29:01;;;;;;;19.43;11.83;;;-0.70;99.90;-1.10;102518.00;;;;5014188;27;118329;-68
2022/01/12 07:31:27;;;;;;;17.47;10.67;;;-0.70;99.90;-1.10;102526.00;;;;5015516;27;107770;-69
2022/01/12 07:33:54;;;;;;;17.97;11.77;;;-0.70;99.90;-1.10;102535.00;;;;5013993;27;87932;-69
2022/01/12 07:36:21;;;;;;;16.33;10.50;;;-0.70;99.90;-1.10;102526.00;;;;4998844;27;88776;-69
2022/01/12 07:38:55;;;;;;;20.97;10.67;;;-0.60;99.90;-1.10;102537.00;;;;4995671;27;88710;-69
2022/01/12 07:41:21;;;;;;;23.47;12.03;;;-0.60;99.90;-1.10;102520.00;;;;4995321;27;87730;-69
2022/01/12 07:43:47;;;;;;;16.23;9.70;;;-0.20;99.90;-1.20;102515.00;;;;4995110;28;87866;-69
2022/01/12 07:46:12;;;;;;;19.03;10.43;;;-0.80;99.90;-1.20;102529.00;;;;4994802;28;119596;-69
2022/01/12 07:48:38;;;;;;;25.67;12.03;;;-0.80;99.90;-1.20;102520.00;;;;4977418;27;88203;-68
2022/01/12 07:51:04;;;;;;;20.60;10.53;;;-0.90;99.90;-1.20;102520.00;;;;4994250;28;112785;-69
2022/01/12 07:53:30;;;;;;;14.10;9.90;;;0.00;99.90;-1.20;102525.00;;;;4995002;27;109790;-69
2022/01/12 07:55:55;;;;;;;16.53;9.73;;;-0.90;99.90;-1.20;102520.00;;;;4995720;27;89057;-69
2022/01/12 07:58:21;;;;;;;19.87;11.77;;;-0.90;99.90;-1.20;102525.00;;;;5007940;27;116409;-68
2022/01/12 08:00:46;;;;;;;20.50;11.87;;;-0.80;99.90;-1.10;102530.00;;;;5014494;27;110051;-69
2022/01/12 08:03:12;;;;;;;18.43;10.37;;;-0.80;99.90;-1.10;102529.00;;;;5013250;27;110089;-69
2022/01/12 08:05:38;;;;;;;22.13;11.10;;;-0.70;99.90;-1.00;102541.00;;;;5014810;27;88783;-69
2022/01/12 08:08:04;;;;;;;17.17;11.73;;;-0.80;99.90;-1.00;102553.00;;;;5013644;27;116874;-69
2022/01/12 08:10:30;;;;;;;12.00;8.83;;;-0.70;99.90;-0.90;102539.00;;;;5013444;27;113096;-68
2022/01/12 08:12:56;;;;;;;20.90;12.30;;;-0.60;99.90;-0.80;102548.00;;;;5014033;27;87896;-69
2022/01/12 08:15:22;;;;;;;19.07;11.73;;;-0.60;99.90;-0.70;102538.00;;;;5013596;27;89101;-69
2022/01/12 08:17:48;;;;;;;23.97;13.90;;;-0.50;99.90;-0.70;102532.00;;;;4995966;27;87768;-69
2022/01/12 08:20:18;;;;;;;20.27;11.77;;;0.30;99.90;-0.60;102544.00;;;;4993954;27;113555;-69
2022/01/12 08:22:43;;;;;;;14.63;11.43;;;-0.40;99.90;-0.60;102555.00;;;;4995301;28;87734;-69
2022/01/12 08:25:10;;;;;;;15.93;10.40;;;-0.30;99.90;-0.50;102553.00;;;;4993479;28;117823;-69
2022/01/12 08:27:37;;;;;;;20.87;10.27;;;-0.30;99.90;-0.40;102553.00;;;;4996164;27;89227;-69
2022/01/12 08:30:14;;;;;;;18.87;10.60;;;-0.10;99.90;-0.40;102541.00;;;;4995019;28;87712;-69
2022/01/12 08:32:40;;;;;;;20.93;11.13;;;-0.10;99.90;-0.30;102541.00;;;;4977738;27;87732;-69
2022/01/12 08:35:06;;;;;;;22.00;11.63;;;0.00;99.90;-0.20;102527.00;;;;4992772;28;119290;-69
2022/01/12 08:37:32;;;;;;;29.83;13.57;;;0.10;99.90;-0.10;102542.00;;;;4993716;28;105279;-70
2022/01/12 08:39:58;;;;;;;19.10;10.70;;;0.20;99.90;0.00;102555.00;;;;4994482;27;87788;-70
2022/01/12 08:42:23;;;;;;;15.03;10.43;;;0.30;99.90;0.10;102561.00;;;;4995073;27;108397;-71
2022/01/12 08:44:49;;;;;;;26.70;12.37;;;0.30;99.90;0.20;102552.00;;;;5003157;27;118752;-71
2022/01/12 08:47:15;;;;;;;16.73;11.77;;;0.40;99.90;0.30;102564.00;;;;5013287;27;111963;-71
2022/01/12 08:49:40;;;;;;;20.67;12.53;;;0.50;99.90;0.40;102555.00;;;;5011281;27;100631;-70
2022/01/12 08:52:06;;;;;;;20.37;12.17;;;0.60;99.90;0.40;102559.00;;;;4996405;27;86855;-71
2022/01/12 08:54:32;;;;;;;19.60;11.50;;;0.70;99.90;0.50;102551.00;;;;4993488;27;88476;-70
2022/01/12 08:56:58;;;;;;;19.13;12.20;;;0.70;99.90;0.50;102551.00;;;;4993526;27;117121;-71
2022/01/12 08:59:24;;;;;;;20.20;12.03;;;1.30;99.90;0.50;102559.00;;;;4994354;27;112690;-70
2022/01/12 09:01:49;;;;;;;20.47;11.90;;;0.90;99.90;0.50;102553.00;;;;4994449;28;87896;-70
2022/01/12 09:04:15;;;;;;;23.63;13.20;;;0.80;99.90;0.50;102556.00;;;;4992735;28;118894;-71
2022/01/12 09:06:41;;;;;;;26.00;12.07;;;0.80;99.90;0.60;102554.00;;;;4994257;27;117125;-71
2022/01/12 09:09:06;;;;;;;15.70;10.10;;;1.00;99.90;0.60;102564.00;;;;5014363;27;111728;-71
2022/01/12 09:11:32;;;;;;;16.37;9.57;;;1.70;99.90;0.60;102562.00;;;;5010304;27;108788;-71
2022/01/12 09:13:58;;;;;;;17.53;11.67;;;0.90;99.90;0.70;102563.00;;;;5015674;27;113824;-71
2022/01/12 09:16:24;;;;;;;23.67;12.60;;;1.30;99.90;0.80;102558.00;;;;5017872;27;88953;-71
2022/01/12 09:18:50;;;;;;;19.97;11.93;;;1.10;99.90;0.90;102560.00;;;;5017729;27;87576;-72
2022/01/12 09:21:16;;;;;;;21.87;15.20;;;1.20;99.90;1.10;102559.00;;;;5016615;27;88241;-72
2022/01/12 09:23:43;;;;;;;26.00;12.40;;;2.00;99.90;1.20;102541.00;;;;5015565;27;118375;-72
2022/01/12 09:26:09;;;;;;;21.63;11.60;;;1.10;99.90;1.20;102545.00;;;;5017169;27;89144;-72
2022/01/12 09:28:35;;;;;;;19.80;10.90;;;2.30;99.90;1.30;102570.00;;;;5015672;27;112689;-72
2022/01/12 09:31:00;;;;;;;16.77;11.03;;;1.60;99.90;1.40;102566.00;;;;5003102;27;109086;-70
2022/01/12 09:33:26;;;;;;;21.57;7.90;;;1.60;99.90;1.40;102554.00;;;;4996073;28;115659;-70
2022/01/12 09:35:53;;;;;;;16.17;10.23;;;1.70;99.90;1.50;102553.00;;;;4998673;27;88843;-70
2022/01/12 09:38:21;;;;;;;15.27;8.50;;;2.40;99.90;1.60;102549.00;;;;4998490;27;87773;-70
2022/01/12 09:40:46;;;;;;;23.87;11.03;;;1.80;99.90;1.70;102571.00;;;;5007058;27;87212;-71
2022/01/12 09:43:13;;;;;;;13.80;9.17;;;1.90;99.90;1.80;102576.00;;;;5016852;27;91247;-71
2022/01/12 09:45:43;;;;;;;13.20;9.13;;;2.00;99.90;1.90;102562.00;;;;4998951;27;87825;-70
2022/01/12 09:48:10;;;;;;;15.43;8.93;;;2.20;99.90;2.00;102565.00;;;;5017581;27;88666;-69
2022/01/12 09:50:36;;;;;;;19.73;9.67;;;2.80;99.90;2.10;102568.00;;;;5018852;27;87901;-71
2022/01/12 09:53:02;;;;;;;12.53;8.87;;;2.40;99.90;2.20;102573.00;;;;5016133;27;88511;-71
2022/01/12 09:55:28;;;;;;;14.23;9.87;;;2.40;99.90;2.30;102572.00;;;;5016970;27;116473;-71
2022/01/12 09:57:53;;;;;;;15.80;9.23;;;2.50;99.90;2.40;102580.00;;;;5017233;27;110672;-72
2022/01/12 10:00:26;;;;;;;19.40;9.73;;;3.20;99.90;2.60;102589.00;;;;5016611;27;109001;-73
2022/01/12 10:02:52;;;;;;;14.50;7.70;;;3.30;99.90;2.60;102582.00;;;;5016094;27;88604;-73
2022/01/12 10:05:18;;;;;;;11.93;8.43;;;3.70;99.90;2.70;102573.00;;;;5017121;27;87100;-73
2022/01/12 10:07:44;;;;;;;16.30;9.17;;;3.00;99.90;2.70;102585.00;;;;5016618;27;88224;-73
2022/01/12 10:10:15;;;;;;;17.33;9.13;;;3.30;99.90;2.70;102572.00;;;;4979335;28;87865;-72
2022/01/12 10:12:55;;;;;;;13.00;8.70;;;3.00;99.90;2.70;102582.00;;;;4978412;28;90102;-73
2022/01/12 10:15:21;;;;;;;15.67;8.93;;;3.10;99.90;2.70;102569.00;;;;5013069;27;90460;-72
2022/01/12 10:17:47;;;;;;;15.57;9.87;;;2.90;99.90;2.70;102561.00;;;;5017674;27;87770;-71
2022/01/12 10:20:19;;;;;;;10.43;6.70;;;3.00;99.90;2.70;102551.00;;;;5017263;27;87717;-71
2022/01/12 10:23:05;;;;;;;11.00;7.70;;;2.80;99.90;2.70;102555.00;;;;5017133;27;89008;-70
2022/01/12 10:25:31;;;;;;;20.13;8.87;;;3.00;99.90;2.80;102557.00;;;;4989001;28;88259;-71
2022/01/12 10:27:58;;;;;;;11.60;7.97;;;3.90;99.90;3.20;102564.00;;;;5011054;27;87688;-71
2022/01/12 10:30:27;;;;;;;11.00;7.93;;;3.30;99.90;3.60;102545.00;;;;5017845;27;87210;-71
2022/01/12 10:33:06;;;;;;;15.17;8.17;;;4.30;99.90;4.10;102547.00;;;;5017254;27;88099;-73
2022/01/12 10:35:37;;;;;;;12.13;7.17;;;4.10;99.90;4.50;102554.00;;;;4981873;28;101398;-73
2022/01/12 10:38:12;;;;;;;15.60;7.70;;;4.50;99.90;5.00;102558.00;;;;4997216;27;88901;-73
2022/01/12 10:41:03;;;;;;;11.07;6.33;;;5.50;99.90;5.50;102555.00;;;;4996764;27;89199;-73
2022/01/12 10:43:33;;;;;;;10.27;6.63;;;5.40;99.90;5.90;102551.00;;;;5017690;27;88209;-72
2022/01/12 10:46:08;;;;;;;10.23;6.50;;;5.90;99.90;6.30;102539.00;;;;4983277;27;88518;-71
2022/01/12 10:48:51;;;;;;;11.27;5.77;;;6.30;99.90;6.70;102546.00;;;;4996973;28;98000;-71
2022/01/12 10:51:26;;;;;;;10.07;5.47;;;6.60;99.90;6.90;102538.00;;;;4993267;27;87852;-72
2022/01/12 10:54:04;;;;;;;12.03;5.43;;;7.00;99.90;7.00;102538.00;;;;4977680;28;88530;-72
2022/01/12 10:56:30;;;;;;;12.17;6.47;;;7.10;99.90;7.20;102543.00;;;;4997130;27;88849;-71
2022/01/12 10:58:58;;;;;;;8.53;5.27;;;7.30;99.90;7.30;102532.00;;;;4995827;27;110164;-72
2022/01/12 11:01:27;;;;;;;11.43;6.60;;;7.40;99.90;7.30;102528.00;;;;5002567;27;87854;-71
2022/01/12 11:03:54;;;;;;;9.87;5.13;;;7.50;99.90;7.30;102526.00;;;;5007243;27;89529;-71
2022/01/12 11:06:19;;;;;;;8.87;5.83;;;7.50;99.90;7.30;102522.00;;;;4980483;27;89918;-70
2022/01/12 11:08:48;;;;;;;9.17;4.77;;;7.50;99.90;7.30;102527.00;;;;5002607;27;87918;-71
2022/01/12 11:11:17;;;;;;;11.33;5.97;;;7.50;99.90;7.40;102529.00;;;;4978403;28;87647;-71
2022/01/12 11:13:45;;;;;;;10.87;6.27;;;7.60;99.90;7.60;102521.00;;;;4996231;27;96165;-70
2022/01/12 11:16:11;;;;;;;6.73;4.80;;;7.70;99.90;7.80;102525.00;;;;4996502;27;88766;-69
2022/01/12 11:18:39;;;;;;;9.37;4.97;;;7.80;99.90;8.00;102520.00;;;;4995964;28;87901;-70
2022/01/12 11:21:20;;;;;;;6.20;4.37;;;8.00;99.90;8.20;102520.00;;;;4989771;28;87163;-71
2022/01/12 11:23:46;;;;;;;8.07;4.73;;;8.20;99.90;8.30;102526.00;;;;4995957;28;88594;-73
2022/01/12 11:26:14;;;;;;;9.57;5.03;;;8.30;99.90;8.30;102532.00;;;;4977209;28;87849;-71
2022/01/12 11:28:39;;;;;;;7.10;4.43;;;8.40;99.90;8.30;102524.00;;;;5012197;27;88963;-73
2022/01/12 11:31:06;;;;;;;11.83;5.50;;;8.40;99.90;8.30;102529.00;;;;5014637;27;107837;-72
2022/01/12 11:33:31;;;;;;;9.30;4.80;;;8.40;99.40;8.20;102532.00;;;;5004375;27;88303;-71
2022/01/12 11:36:20;;;;;;;8.33;5.20;;;8.40;97.90;8.00;102531.00;;;;5011895;27;89030;-72
2022/01/12 11:39:06;;;;;;;6.03;4.27;;;8.20;98.30;7.80;102530.00;;;;5016181;27;87851;-71
2022/01/12 11:41:35;;;;;;;5.60;3.83;;;8.00;99.20;7.80;102537.00;;;;4990189;28;87931;-71
2022/01/12 11:44:01;;;;;;;10.23;5.20;;;7.90;98.10;7.70;102524.00;;;;4976561;28;88409;-71
2022/01/12 11:46:40;;;;;;;7.30;4.77;;;7.90;98.00;7.80;102529.00;;;;5013340;27;101937;-71
2022/01/12 11:49:06;;;;;;;8.80;4.97;;;7.90;99.10;8.10;102519.00;;;;5015897;27;87816;-71
2022/01/12 11:51:38;;;;;;;7.33;4.90;;;8.10;98.40;8.30;102524.00;;;;5013075;27;108235;-71
2022/01/12 11:54:20;;;;;;;10.50;5.23;;;8.30;97.10;8.40;102511.00;;;;5015159;27;88837;-71
2022/01/12 11:56:58;;;;;;;11.50;5.43;;;8.40;96.00;8.40;102520.00;;;;4996540;27;88242;-70
2022/01/12 11:59:28;;;;;;;6.47;4.33;;;8.50;95.10;8.50;102510.00;;;;5015494;27;98615;-71